createdAt,value
2019-02-05T00:00:10.312Z,26.00
2019-02-05T00:01:10.294Z,26.90
2019-02-05T00:03:04.126Z,29.00
2019-02-05T00:04:03.898Z,28.40
2019-02-05T00:05:57.018Z,25.20
2019-02-05T00:06:57.248Z,25.00
2019-02-05T00:08:49.823Z,22.50
2019-02-05T00:09:49.329Z,21.90
2019-02-05T00:11:42.979Z,23.80
2019-02-05T00:12:42.700Z,23.90
2019-02-05T00:14:36.076Z,22.50
2019-02-05T00:15:35.284Z,20.40
2019-02-05T00:17:27.370Z,23.00
2019-02-05T00:18:27.558Z,21.70
2019-02-05T00:20:21.085Z,20.50
2019-02-05T00:21:20.711Z,21.10
2019-02-05T00:23:14.292Z,21.70
2019-02-05T00:24:14.290Z,22.70
2019-02-05T00:26:06.876Z,23.30
2019-02-05T00:27:06.586Z,23.00
2019-02-05T00:28:58.726Z,21.50
2019-02-05T00:29:58.903Z,21.40
2019-02-05T00:31:52.518Z,21.30
2019-02-05T00:32:52.066Z,22.40
2019-02-05T00:34:44.591Z,22.20
2019-02-05T00:35:44.611Z,21.60
2019-02-05T00:37:38.726Z,21.20
2019-02-05T00:38:38.491Z,22.90
2019-02-05T00:40:30.811Z,22.20
2019-02-05T00:41:30.854Z,20.90
2019-02-05T00:43:24.186Z,20.20
2019-02-05T00:44:24.181Z,21.50
2019-02-05T00:46:17.528Z,22.10
2019-02-05T00:47:17.544Z,22.30
2019-02-05T00:49:09.774Z,21.90
2019-02-05T00:50:09.628Z,20.70
2019-02-05T00:52:02.205Z,18.60
2019-02-05T00:53:01.927Z,19.10
2019-02-05T00:54:55.765Z,20.00
2019-02-05T00:55:55.512Z,19.20
2019-02-05T00:57:48.876Z,21.50
2019-02-05T00:58:48.620Z,22.40
2019-02-05T01:00:42.409Z,20.40
2019-02-05T01:01:41.962Z,18.90
2019-02-05T01:03:35.572Z,20.30
2019-02-05T01:04:35.352Z,19.20
2019-02-05T01:06:27.888Z,19.60
2019-02-05T01:07:27.917Z,19.60
2019-02-05T01:09:20.237Z,18.80
2019-02-05T01:10:20.221Z,19.10
2019-02-05T01:12:12.890Z,19.70
2019-02-05T01:13:12.692Z,20.10
2019-02-05T01:15:05.836Z,21.00
2019-02-05T01:16:05.295Z,21.40
2019-02-05T01:17:58.582Z,19.60
2019-02-05T01:18:58.605Z,18.30
2019-02-05T01:20:50.688Z,19.80
2019-02-05T01:21:50.937Z,18.70
2019-02-05T01:23:44.252Z,18.50
2019-02-05T01:24:44.279Z,18.50
2019-02-05T01:26:36.654Z,18.60
2019-02-05T01:27:36.388Z,19.00
2019-02-05T01:29:30.203Z,18.60
2019-02-05T01:30:29.965Z,18.70
2019-02-05T01:32:22.093Z,18.80
2019-02-05T01:33:22.055Z,19.20
2019-02-05T01:35:15.667Z,18.40
2019-02-05T01:36:15.430Z,19.80
2019-02-05T01:38:09.004Z,19.20
2019-02-05T01:39:08.742Z,19.50
2019-02-05T01:41:02.320Z,18.60
2019-02-05T01:42:02.091Z,20.80
2019-02-05T01:43:55.691Z,19.60
2019-02-05T01:44:55.720Z,19.60
2019-02-05T01:46:49.028Z,21.50
2019-02-05T01:47:48.783Z,19.70
2019-02-05T01:49:40.867Z,21.40
2019-02-05T01:50:40.852Z,21.70
2019-02-05T01:52:33.760Z,19.50
2019-02-05T01:53:33.535Z,19.90
2019-02-05T01:55:26.893Z,18.90
2019-02-05T01:56:26.904Z,19.30
2019-02-05T01:58:19.658Z,21.60
2019-02-05T01:59:19.635Z,23.00
2019-02-05T02:01:11.744Z,21.70
2019-02-05T02:02:11.971Z,22.00
2019-02-05T02:04:05.536Z,20.40
2019-02-05T02:05:05.077Z,19.50
2019-02-05T02:06:57.440Z,19.90
2019-02-05T02:07:57.642Z,19.50
2019-02-05T02:09:50.166Z,19.40
2019-02-05T02:10:49.967Z,19.90
2019-02-05T02:12:43.337Z,20.40
2019-02-05T02:13:43.112Z,19.80
2019-02-05T02:15:35.741Z,19.00
2019-02-05T02:16:35.794Z,19.90
2019-02-05T02:18:27.746Z,19.00
2019-02-05T02:19:27.997Z,19.20
2019-02-05T02:21:21.581Z,17.20
2019-02-05T02:22:21.085Z,19.20
2019-02-05T02:24:13.458Z,18.70
2019-02-05T02:25:13.673Z,19.00
2019-02-05T02:27:05.949Z,18.90
2019-02-05T02:28:06.015Z,18.70
2019-02-05T02:29:58.114Z,16.60
2019-02-05T02:30:58.319Z,16.70
2019-02-05T02:32:51.957Z,18.20
2019-02-05T02:33:51.694Z,17.00
2019-02-05T02:35:44.420Z,18.40
2019-02-05T02:36:44.161Z,18.00
2019-02-05T02:38:37.473Z,18.70
2019-02-05T02:39:37.231Z,17.60
2019-02-05T02:41:30.346Z,17.60
2019-02-05T02:42:30.607Z,17.10
2019-02-05T02:44:24.149Z,17.40
2019-02-05T02:45:23.925Z,17.30
2019-02-05T02:47:16.670Z,16.60
2019-02-05T02:48:16.620Z,17.20
2019-02-05T02:50:08.958Z,17.20
2019-02-05T02:51:08.952Z,17.00
2019-02-05T02:53:01.317Z,15.60
2019-02-05T02:54:01.294Z,15.50
2019-02-05T02:55:53.643Z,15.80
2019-02-05T02:57:04.387Z,15.40
2019-02-05T02:58:46.998Z,16.30
2019-02-05T02:59:47.019Z,16.70
2019-02-05T03:01:39.287Z,15.00
2019-02-05T03:02:39.323Z,15.60
2019-02-05T03:04:31.411Z,16.30
2019-02-05T03:05:31.655Z,15.80
2019-02-05T03:07:25.185Z,15.50
2019-02-05T03:08:24.746Z,16.90
2019-02-05T03:10:18.351Z,15.00
2019-02-05T03:11:18.324Z,16.90
2019-02-05T03:13:11.381Z,17.30
2019-02-05T03:14:10.773Z,15.30
2019-02-05T03:16:03.993Z,15.20
2019-02-05T03:17:03.101Z,16.80
2019-02-05T03:18:55.660Z,16.70
2019-02-05T03:19:55.694Z,15.40
2019-02-05T03:21:47.780Z,15.70
2019-02-05T03:22:48.024Z,17.40
2019-02-05T03:24:41.604Z,15.50
2019-02-05T03:25:41.109Z,16.10
2019-02-05T03:27:33.468Z,16.70
2019-02-05T03:28:33.459Z,16.40
2019-02-05T03:30:26.091Z,17.60
2019-02-05T03:31:26.017Z,17.80
2019-02-05T03:33:19.408Z,16.50
2019-02-05T03:34:19.405Z,16.30
2019-02-05T03:36:13.532Z,16.10
2019-02-05T03:37:12.733Z,17.30
2019-02-05T03:39:05.052Z,16.60
2019-02-05T03:40:05.078Z,16.10
2019-02-05T03:41:57.471Z,16.60
2019-02-05T03:42:57.485Z,16.00
2019-02-05T03:44:49.587Z,15.90
2019-02-05T03:45:49.838Z,15.80
2019-02-05T03:47:42.306Z,14.80
2019-02-05T03:48:41.874Z,13.70
2019-02-05T03:50:34.482Z,14.70
2019-02-05T03:51:34.245Z,14.80
2019-02-05T03:53:28.031Z,14.70
2019-02-05T03:54:27.843Z,16.00
2019-02-05T03:56:21.190Z,16.90
2019-02-05T03:57:30.735Z,16.50
2019-02-05T03:59:13.337Z,17.20
2019-02-05T04:00:13.136Z,16.80
2019-02-05T04:02:05.496Z,16.80
2019-02-05T04:03:05.468Z,15.10
2019-02-05T04:04:57.996Z,15.10
2019-02-05T04:05:57.822Z,15.10
2019-02-05T04:07:50.528Z,13.90
2019-02-05T04:08:50.410Z,14.60
2019-02-05T04:10:43.687Z,13.60
2019-02-05T04:11:43.521Z,13.60
2019-02-05T04:13:35.866Z,13.60
2019-02-05T04:14:36.074Z,12.60
2019-02-05T04:16:28.481Z,12.20
2019-02-05T04:17:27.928Z,13.70
2019-02-05T04:19:20.005Z,12.90
2019-02-05T04:20:20.250Z,12.20
2019-02-05T04:22:13.584Z,13.00
2019-02-05T04:23:13.349Z,12.20
2019-02-05T04:25:05.855Z,12.10
2019-02-05T04:26:05.894Z,12.10
2019-02-05T04:27:58.236Z,12.50
2019-02-05T04:28:58.294Z,11.90
2019-02-05T04:30:50.609Z,12.50
2019-02-05T04:31:50.549Z,13.10
2019-02-05T04:33:44.175Z,11.60
2019-02-05T04:34:43.935Z,12.00
2019-02-05T04:36:36.015Z,11.00
2019-02-05T04:37:36.048Z,10.20
2019-02-05T04:39:30.124Z,11.00
2019-02-05T04:40:30.132Z,10.80
2019-02-05T04:42:22.490Z,12.30
2019-02-05T04:43:22.225Z,11.70
2019-02-05T04:45:16.052Z,10.80
2019-02-05T04:46:15.832Z,10.60
2019-02-05T04:48:08.953Z,10.40
2019-02-05T04:49:08.961Z,10.80
2019-02-05T04:51:01.851Z,10.70
2019-02-05T04:52:01.503Z,10.40
2019-02-05T04:53:53.153Z,11.20
2019-02-05T04:54:53.380Z,10.50
2019-02-05T04:56:46.963Z,10.20
2019-02-05T04:57:56.928Z,10.10
2019-02-05T04:59:38.800Z,9.40
2019-02-05T05:00:39.028Z,9.80
2019-02-05T05:02:32.600Z,9.20
2019-02-05T05:03:33.880Z,9.80
2019-02-05T05:05:24.455Z,9.60
2019-02-05T05:06:24.730Z,9.80
2019-02-05T05:08:18.204Z,10.10
2019-02-05T05:09:17.799Z,10.60
2019-02-05T05:11:10.391Z,9.50
2019-02-05T05:12:10.355Z,9.70
2019-02-05T05:14:02.916Z,8.90
2019-02-05T05:15:02.706Z,8.60
2019-02-05T05:16:56.031Z,9.40
2019-02-05T05:17:55.814Z,9.30
2019-02-05T05:19:48.407Z,9.10
2019-02-05T05:20:48.167Z,9.10
2019-02-05T05:22:41.785Z,9.30
2019-02-05T05:23:41.742Z,9.20
2019-02-05T05:25:34.348Z,8.30
2019-02-05T05:26:33.863Z,9.00
2019-02-05T05:28:26.200Z,9.30
2019-02-05T05:29:26.167Z,9.00
2019-02-05T05:31:18.974Z,8.50
2019-02-05T05:32:18.495Z,9.20
2019-02-05T05:34:11.444Z,8.30
2019-02-05T05:35:11.173Z,7.70
2019-02-05T05:37:04.714Z,7.90
2019-02-05T05:38:04.791Z,8.90
2019-02-05T05:39:57.161Z,8.60
2019-02-05T05:40:57.120Z,8.20
2019-02-05T05:42:49.729Z,8.70
2019-02-05T05:43:49.228Z,8.40
2019-02-05T05:45:41.777Z,7.80
2019-02-05T05:46:41.534Z,7.30
2019-02-05T05:48:34.117Z,7.90
2019-02-05T05:49:33.868Z,7.40
2019-02-05T05:51:27.238Z,7.40
2019-02-05T05:52:27.217Z,6.80
2019-02-05T05:54:20.062Z,7.10
2019-02-05T05:55:19.838Z,7.50
2019-02-05T05:57:12.961Z,7.10
2019-02-05T05:58:22.405Z,7.80
2019-02-05T06:00:06.053Z,6.80
2019-02-05T06:01:05.835Z,7.00
2019-02-05T06:02:57.948Z,7.10
2019-02-05T06:03:58.187Z,7.60
2019-02-05T06:05:51.769Z,7.00
2019-02-05T06:06:51.301Z,7.00
2019-02-05T06:08:43.984Z,7.30
2019-02-05T06:09:43.987Z,7.10
2019-02-05T06:11:37.587Z,6.60
2019-02-05T06:12:37.139Z,6.70
2019-02-05T06:14:29.743Z,6.80
2019-02-05T06:15:29.709Z,6.70
2019-02-05T06:17:23.054Z,6.00
2019-02-05T06:18:23.044Z,6.30
2019-02-05T06:20:15.123Z,6.80
2019-02-05T06:21:15.380Z,6.70
2019-02-05T06:23:08.934Z,6.20
2019-02-05T06:24:08.722Z,6.00
2019-02-05T06:26:01.073Z,6.60
2019-02-05T06:27:00.793Z,7.00
2019-02-05T06:28:54.624Z,6.00
2019-02-05T06:29:54.373Z,5.90
2019-02-05T06:31:47.762Z,6.70
2019-02-05T06:32:47.485Z,5.50
2019-02-05T06:34:40.310Z,5.30
2019-02-05T06:35:39.825Z,6.20
2019-02-05T06:37:32.901Z,5.80
2019-02-05T06:38:32.902Z,6.20
2019-02-05T06:40:26.961Z,5.80
2019-02-05T06:41:26.752Z,6.10
2019-02-05T06:43:18.869Z,5.40
2019-02-05T06:44:19.049Z,6.30
2019-02-05T06:46:12.400Z,5.90
2019-02-05T06:47:12.418Z,5.90
2019-02-05T06:49:04.549Z,5.50
2019-02-05T06:50:04.502Z,6.10
2019-02-05T06:51:57.323Z,5.90
2019-02-05T06:52:56.847Z,4.70
2019-02-05T06:54:50.481Z,5.50
2019-02-05T06:55:50.496Z,5.10
2019-02-05T06:57:42.609Z,5.30
2019-02-05T06:58:46.404Z,5.70
2019-02-05T07:00:35.373Z,5.20
2019-02-05T07:01:34.763Z,4.60
2019-02-05T07:03:28.154Z,5.20
2019-02-05T07:04:28.108Z,5.40
2019-02-05T07:06:20.454Z,5.00
2019-02-05T07:07:20.480Z,4.80
2019-02-05T07:09:13.402Z,4.50
2019-02-05T07:10:12.943Z,4.90
2019-02-05T07:12:05.243Z,5.70
2019-02-05T07:13:05.258Z,5.00
2019-02-05T07:14:58.769Z,4.80
2019-02-05T07:15:58.588Z,4.90
2019-02-05T07:17:51.153Z,4.70
2019-02-05T07:18:51.151Z,5.50
2019-02-05T07:20:44.698Z,5.10
2019-02-05T07:21:44.530Z,5.20
2019-02-05T07:23:36.883Z,4.70
2019-02-05T07:24:36.840Z,5.00
2019-02-05T07:26:29.458Z,4.30
2019-02-05T07:27:28.940Z,4.70
2019-02-05T07:29:21.504Z,4.90
2019-02-05T07:30:21.536Z,4.60
2019-02-05T07:32:15.132Z,4.30
2019-02-05T07:33:14.620Z,4.70
2019-02-05T07:35:07.244Z,4.80
2019-02-05T07:36:06.950Z,4.20
2019-02-05T07:37:59.793Z,4.30
2019-02-05T07:38:59.651Z,5.30
2019-02-05T07:40:52.001Z,4.80
2019-02-05T07:41:51.736Z,4.30
2019-02-05T07:43:45.278Z,4.80
2019-02-05T07:44:45.050Z,4.80
2019-02-05T07:46:37.526Z,4.70
2019-02-05T07:47:37.616Z,4.20
2019-02-05T07:49:30.077Z,4.00
2019-02-05T07:50:29.856Z,3.90
2019-02-05T07:52:23.488Z,4.10
2019-02-05T07:53:23.214Z,3.60
2019-02-05T07:55:16.805Z,4.20
2019-02-05T07:56:16.782Z,4.60
2019-02-05T07:58:08.928Z,4.50
2019-02-05T07:59:10.518Z,4.20
2019-02-05T08:01:02.501Z,3.70
2019-02-05T08:02:02.507Z,4.40
2019-02-05T08:03:54.556Z,4.50
2019-02-05T08:04:54.602Z,3.70
2019-02-05T08:06:48.434Z,4.00
2019-02-05T08:07:48.163Z,3.70
2019-02-05T08:09:40.248Z,4.30
2019-02-05T08:10:40.486Z,4.20
2019-02-05T08:12:32.809Z,4.20
2019-02-05T08:13:32.557Z,4.60
2019-02-05T08:15:26.167Z,4.10
2019-02-05T08:16:26.176Z,3.80
2019-02-05T08:18:19.488Z,4.20
2019-02-05T08:19:19.512Z,3.80
2019-02-05T08:21:11.814Z,4.10
2019-02-05T08:22:11.600Z,3.70
2019-02-05T08:24:04.157Z,4.00
2019-02-05T08:25:04.142Z,4.10
2019-02-05T08:26:56.584Z,3.70
2019-02-05T08:27:56.288Z,3.70
2019-02-05T08:29:50.073Z,3.00
2019-02-05T08:30:49.605Z,3.50
2019-02-05T08:32:42.204Z,3.10
2019-02-05T08:33:42.180Z,3.60
2019-02-05T08:35:34.634Z,3.70
2019-02-05T08:36:34.700Z,3.60
2019-02-05T08:38:26.790Z,3.30
2019-02-05T08:39:26.766Z,3.40
2019-02-05T08:41:21.127Z,3.70
2019-02-05T08:42:20.601Z,3.80
2019-02-05T08:44:13.210Z,3.90
2019-02-05T08:45:14.305Z,3.10
2019-02-05T08:47:05.780Z,3.50
2019-02-05T08:48:05.315Z,3.90
2019-02-05T08:49:57.921Z,3.30
2019-02-05T08:50:57.646Z,3.30
2019-02-05T08:52:51.220Z,3.90
2019-02-05T08:53:51.002Z,3.90
2019-02-05T08:55:43.558Z,3.90
2019-02-05T08:56:43.580Z,3.50
2019-02-05T08:58:36.842Z,3.40
2019-02-05T08:59:36.902Z,3.30
2019-02-05T09:01:29.095Z,3.90
2019-02-05T09:02:29.265Z,4.60
2019-02-05T09:04:22.800Z,4.30
2019-02-05T09:05:22.549Z,3.50
2019-02-05T09:07:14.657Z,3.60
2019-02-05T09:08:14.953Z,3.90
2019-02-05T09:10:08.555Z,3.30
2019-02-05T09:11:08.011Z,3.00
2019-02-05T09:13:01.627Z,3.30
2019-02-05T09:14:10.517Z,3.70
2019-02-05T09:15:54.094Z,3.40
2019-02-05T09:16:53.682Z,3.80
2019-02-05T09:18:46.017Z,3.10
2019-02-05T09:19:46.244Z,3.80
2019-02-05T09:21:38.823Z,4.10
2019-02-05T09:22:38.606Z,3.50
2019-02-05T09:24:31.705Z,3.20
2019-02-05T09:25:31.721Z,3.90
2019-02-05T09:27:24.518Z,4.10
2019-02-05T09:28:24.032Z,4.00
2019-02-05T09:30:16.420Z,3.50
2019-02-05T09:31:16.406Z,3.70
2019-02-05T09:33:10.207Z,3.70
2019-02-05T09:34:09.740Z,4.00
2019-02-05T09:36:03.097Z,3.00
2019-02-05T09:37:03.319Z,3.50
2019-02-05T09:38:55.801Z,3.20
2019-02-05T09:39:55.601Z,3.40
2019-02-05T09:41:48.913Z,3.70
2019-02-05T09:42:48.911Z,3.60
2019-02-05T09:44:42.711Z,3.40
2019-02-05T09:45:42.508Z,3.90
2019-02-05T09:47:34.592Z,3.10
2019-02-05T09:48:34.609Z,3.30
2019-02-05T09:50:30.813Z,3.50
2019-02-05T09:51:28.161Z,4.10
2019-02-05T09:53:21.574Z,3.40
2019-02-05T09:54:21.507Z,3.90
2019-02-05T09:56:14.451Z,3.80
2019-02-05T09:57:13.944Z,4.30
2019-02-05T09:59:06.533Z,4.10
2019-02-05T10:00:06.280Z,3.70
2019-02-05T10:01:59.072Z,4.30
2019-02-05T10:02:58.653Z,3.70
2019-02-05T10:04:51.807Z,3.50
2019-02-05T10:05:51.008Z,3.10
2019-02-05T10:07:44.691Z,4.10
2019-02-05T10:08:44.308Z,3.40
2019-02-05T10:10:36.687Z,4.00
2019-02-05T10:11:36.676Z,3.80
2019-02-05T10:13:30.207Z,3.40
2019-02-05T10:14:30.041Z,3.90
2019-02-05T10:16:22.738Z,3.60
2019-02-05T10:17:22.585Z,3.50
2019-02-05T10:19:15.898Z,3.90
2019-02-05T10:20:15.684Z,3.10
2019-02-05T10:22:08.023Z,3.40
2019-02-05T10:23:08.257Z,3.70
2019-02-05T10:25:00.818Z,3.90
2019-02-05T10:26:00.565Z,4.80
2019-02-05T10:27:53.731Z,4.10
2019-02-05T10:28:53.700Z,3.80
2019-02-05T10:30:46.226Z,4.00
2019-02-05T10:31:46.002Z,4.30
2019-02-05T10:33:38.620Z,4.10
2019-02-05T10:34:38.573Z,4.60
2019-02-05T10:36:30.383Z,4.00
2019-02-05T10:37:30.228Z,4.80
2019-02-05T10:39:22.879Z,3.90
2019-02-05T10:40:22.860Z,3.80
2019-02-05T10:42:15.764Z,4.30
2019-02-05T10:43:15.496Z,4.20
2019-02-05T10:45:07.838Z,3.50
2019-02-05T10:46:08.065Z,3.90
2019-02-05T10:48:00.712Z,3.40
2019-02-05T10:49:03.173Z,3.60
2019-02-05T10:50:53.137Z,3.80
2019-02-05T10:51:53.081Z,3.90
2019-02-05T10:53:45.416Z,4.00
2019-02-05T10:54:45.175Z,3.40
2019-02-05T10:56:37.801Z,3.50
2019-02-05T10:57:37.782Z,3.70
2019-02-05T10:59:30.369Z,4.20
2019-02-05T11:00:30.088Z,4.00
2019-02-05T11:02:22.209Z,4.00
2019-02-05T11:03:22.213Z,4.00
2019-02-05T11:05:14.771Z,4.10
2019-02-05T11:06:14.550Z,3.40
2019-02-05T11:08:07.034Z,4.40
2019-02-05T11:09:07.002Z,4.00
2019-02-05T11:11:00.315Z,4.60
2019-02-05T11:12:00.373Z,4.10
2019-02-05T11:13:52.449Z,3.70
2019-02-05T11:14:52.681Z,3.80
2019-02-05T11:16:45.997Z,4.20
2019-02-05T11:17:46.003Z,4.30
2019-02-05T11:19:38.354Z,4.20
2019-02-05T11:20:38.381Z,4.00
2019-02-05T11:22:31.864Z,4.00
2019-02-05T11:23:31.440Z,4.10
2019-02-05T11:25:24.081Z,4.30
2019-02-05T11:26:24.071Z,4.70
2019-02-05T11:28:16.627Z,4.50
2019-02-05T11:29:16.350Z,4.20
2019-02-05T11:31:08.510Z,4.40
2019-02-05T11:32:08.718Z,4.20
2019-02-05T11:34:01.032Z,4.50
2019-02-05T11:35:01.100Z,4.20
2019-02-05T11:36:54.787Z,4.40
2019-02-05T11:37:54.189Z,4.70
2019-02-05T11:39:48.011Z,4.00
2019-02-05T11:40:47.522Z,4.60
2019-02-05T11:42:40.126Z,4.50
2019-02-05T11:43:40.077Z,4.30
2019-02-05T11:45:33.663Z,4.20
2019-02-05T11:46:33.431Z,4.00
2019-02-05T11:48:26.154Z,4.30
2019-02-05T11:49:26.083Z,4.10
2019-02-05T11:51:19.444Z,3.80
2019-02-05T11:52:19.224Z,3.90
2019-02-05T11:54:12.181Z,4.10
2019-02-05T11:55:12.183Z,4.30
2019-02-05T11:57:05.485Z,4.10
2019-02-05T11:58:05.556Z,4.40
2019-02-05T11:59:58.900Z,4.20
2019-02-05T12:00:58.844Z,4.40
2019-02-05T12:02:51.389Z,4.60
2019-02-05T12:03:51.211Z,4.30
2019-02-05T12:05:43.288Z,4.50
2019-02-05T12:06:43.567Z,4.40
2019-02-05T12:08:36.848Z,4.80
2019-02-05T12:09:36.884Z,4.60
2019-02-05T12:11:29.980Z,4.30
2019-02-05T12:12:30.231Z,4.20
2019-02-05T12:14:22.742Z,4.30
2019-02-05T12:15:22.526Z,4.40
2019-02-05T12:17:14.644Z,4.30
2019-02-05T12:18:14.673Z,5.10
2019-02-05T12:20:08.016Z,4.50
2019-02-05T12:21:06.978Z,4.40
2019-02-05T12:22:59.567Z,4.30
2019-02-05T12:23:59.559Z,4.40
2019-02-05T12:25:52.885Z,4.70
2019-02-05T12:26:52.692Z,4.90
2019-02-05T12:28:44.994Z,4.00
2019-02-05T12:29:45.229Z,4.20
2019-02-05T12:31:37.800Z,4.10
2019-02-05T12:32:37.543Z,4.00
2019-02-05T12:34:30.695Z,4.80
2019-02-05T12:35:30.938Z,4.40
2019-02-05T12:37:23.455Z,4.70
2019-02-05T12:38:23.021Z,4.50
2019-02-05T12:40:15.582Z,4.60
2019-02-05T12:41:15.560Z,4.80
2019-02-05T12:43:08.677Z,4.30
2019-02-05T12:44:08.425Z,3.90
2019-02-05T12:46:01.093Z,4.80
2019-02-05T12:47:01.102Z,4.60
2019-02-05T12:48:53.664Z,4.30
2019-02-05T12:49:53.452Z,4.60
2019-02-05T12:51:45.536Z,4.40
2019-02-05T12:52:45.786Z,4.20
2019-02-05T12:54:38.826Z,4.50
2019-02-05T12:55:38.666Z,4.20
2019-02-05T12:57:30.984Z,4.40
2019-02-05T12:58:30.941Z,4.20
2019-02-05T13:00:23.460Z,4.70
2019-02-05T13:01:23.296Z,4.40
2019-02-05T13:03:16.807Z,5.30
2019-02-05T13:04:16.631Z,5.20
2019-02-05T13:06:10.268Z,5.10
2019-02-05T13:07:10.020Z,4.80
2019-02-05T13:09:02.113Z,5.20
2019-02-05T13:10:02.330Z,5.10
2019-02-05T13:11:55.890Z,4.70
2019-02-05T13:12:55.668Z,5.00
2019-02-05T13:14:47.764Z,4.30
2019-02-05T13:15:48.000Z,4.70
2019-02-05T13:17:40.552Z,5.00
2019-02-05T13:18:40.079Z,5.30
2019-02-05T13:20:33.304Z,4.60
2019-02-05T13:21:32.648Z,4.70
2019-02-05T13:23:25.253Z,4.90
2019-02-05T13:24:24.988Z,4.90
2019-02-05T13:26:17.121Z,5.20
2019-02-05T13:27:17.107Z,5.00
2019-02-05T13:29:09.660Z,5.40
2019-02-05T13:30:09.650Z,5.00
2019-02-05T13:32:01.771Z,5.20
2019-02-05T13:33:01.764Z,5.50
2019-02-05T13:34:55.638Z,4.90
2019-02-05T13:35:55.343Z,4.80
2019-02-05T13:37:47.417Z,5.10
2019-02-05T13:38:47.657Z,5.70
2019-02-05T13:40:39.976Z,5.20
2019-02-05T13:41:39.978Z,4.70
2019-02-05T13:43:32.131Z,5.10
2019-02-05T13:44:32.318Z,4.80
2019-02-05T13:46:25.651Z,4.30
2019-02-05T13:47:25.409Z,5.30
2019-02-05T13:49:17.814Z,5.70
2019-02-05T13:50:17.759Z,5.70
2019-02-05T13:52:11.618Z,4.50
2019-02-05T13:53:11.393Z,5.00
2019-02-05T13:55:03.726Z,4.90
2019-02-05T13:56:05.341Z,4.80
2019-02-05T13:57:56.014Z,4.80
2019-02-05T13:58:56.019Z,4.40
2019-02-05T14:00:48.127Z,4.50
2019-02-05T14:01:48.131Z,4.50
2019-02-05T14:03:41.911Z,4.60
2019-02-05T14:04:41.707Z,4.70
2019-02-05T14:06:34.051Z,5.00
2019-02-05T14:07:34.056Z,5.00
2019-02-05T14:09:26.503Z,4.90
2019-02-05T14:10:26.230Z,4.70
2019-02-05T14:12:21.718Z,5.10
2019-02-05T14:13:18.824Z,5.30
2019-02-05T14:15:12.181Z,5.40
2019-02-05T14:16:11.905Z,5.70
2019-02-05T14:18:04.387Z,5.20
2019-02-05T14:19:04.416Z,5.30
2019-02-05T14:20:57.230Z,5.30
2019-02-05T14:21:56.995Z,5.70
2019-02-05T14:23:49.388Z,6.00
2019-02-05T14:24:49.263Z,5.90
2019-02-05T14:26:41.898Z,6.10
2019-02-05T14:27:41.655Z,6.40
2019-02-05T14:29:34.769Z,5.70
2019-02-05T14:30:34.747Z,6.50
2019-02-05T14:32:27.297Z,5.80
2019-02-05T14:33:27.306Z,5.50
2019-02-05T14:35:20.674Z,5.60
2019-02-05T14:36:20.654Z,5.90
2019-02-05T14:38:13.248Z,5.80
2019-02-05T14:39:12.756Z,6.60
2019-02-05T14:41:06.138Z,7.20
2019-02-05T14:42:06.330Z,6.80
2019-02-05T14:44:00.469Z,7.10
2019-02-05T14:45:00.013Z,6.50
2019-02-05T14:46:52.323Z,7.10
2019-02-05T14:47:52.571Z,7.80
2019-02-05T14:49:44.870Z,8.00
2019-02-05T14:50:44.902Z,8.00
2019-02-05T14:52:37.288Z,8.40
2019-02-05T14:53:36.981Z,8.20
2019-02-05T14:55:30.794Z,11.30
2019-02-05T14:56:30.584Z,10.20
2019-02-05T14:58:22.983Z,9.90
2019-02-05T14:59:22.676Z,9.30
2019-02-05T15:01:15.369Z,10.60
2019-02-05T15:02:15.436Z,10.30
2019-02-05T15:04:08.775Z,12.00
2019-02-05T15:05:08.530Z,11.50
2019-02-05T15:07:05.124Z,10.90
2019-02-05T15:08:01.117Z,11.90
2019-02-05T15:09:53.159Z,10.90
2019-02-05T15:10:53.176Z,11.40
2019-02-05T15:12:45.956Z,10.40
2019-02-05T15:13:45.714Z,9.80
2019-02-05T15:15:37.850Z,10.00
2019-02-05T15:16:38.066Z,10.00
2019-02-05T15:18:30.619Z,9.40
2019-02-05T15:19:30.135Z,9.90
2019-02-05T15:21:22.479Z,9.90
2019-02-05T15:22:22.502Z,8.00
2019-02-05T15:24:16.309Z,9.40
2019-02-05T15:25:15.850Z,9.30
2019-02-05T15:27:08.430Z,8.90
2019-02-05T15:28:08.160Z,9.10
2019-02-05T15:30:00.962Z,9.40
2019-02-05T15:31:00.713Z,10.20
2019-02-05T15:32:52.840Z,9.80
2019-02-05T15:33:53.116Z,8.90
2019-02-05T15:35:45.968Z,9.20
2019-02-05T15:36:45.163Z,9.50
2019-02-05T15:38:37.739Z,9.40
2019-02-05T15:39:37.483Z,9.70
2019-02-05T15:41:31.314Z,10.10
2019-02-05T15:42:30.874Z,10.40
2019-02-05T15:44:23.212Z,9.40
2019-02-05T15:45:23.174Z,9.40
2019-02-05T15:47:15.751Z,9.70
2019-02-05T15:48:15.503Z,9.90
2019-02-05T15:50:07.970Z,9.90
2019-02-05T15:51:07.929Z,9.20
2019-02-05T15:53:00.725Z,10.50
2019-02-05T15:54:00.267Z,10.90
2019-02-05T15:55:53.617Z,10.40
2019-02-05T15:56:53.643Z,9.30
2019-02-05T15:58:46.424Z,9.50
2019-02-05T15:59:46.253Z,10.00
2019-02-05T16:01:39.569Z,8.80
2019-02-05T16:02:39.339Z,9.40
2019-02-05T16:04:31.904Z,9.20
2019-02-05T16:05:31.658Z,8.30
2019-02-05T16:07:24.632Z,9.30
2019-02-05T16:08:24.567Z,8.70
2019-02-05T16:10:16.890Z,8.40
2019-02-05T16:11:16.903Z,9.80
2019-02-05T16:13:10.299Z,7.70
2019-02-05T16:14:10.034Z,8.40
2019-02-05T16:16:02.567Z,7.80
2019-02-05T16:17:02.374Z,7.60
2019-02-05T16:18:54.988Z,8.90
2019-02-05T16:19:54.693Z,8.80
2019-02-05T16:21:48.501Z,8.00
2019-02-05T16:22:48.279Z,9.20
2019-02-05T16:24:40.611Z,8.50
2019-02-05T16:25:40.345Z,8.90
2019-02-05T16:27:33.035Z,7.90
2019-02-05T16:28:32.932Z,9.20
2019-02-05T16:30:25.255Z,8.80
2019-02-05T16:31:27.818Z,7.50
2019-02-05T16:33:17.795Z,8.60
2019-02-05T16:34:17.346Z,9.10
2019-02-05T16:36:09.920Z,8.50
2019-02-05T16:37:09.958Z,9.50
2019-02-05T16:39:03.486Z,8.40
2019-02-05T16:40:03.284Z,8.20
2019-02-05T16:41:55.601Z,8.90
2019-02-05T16:42:55.395Z,8.00
2019-02-05T16:44:48.727Z,8.20
2019-02-05T16:45:48.445Z,8.10
2019-02-05T16:47:41.190Z,8.60
2019-02-05T16:48:40.962Z,8.00
2019-02-05T16:50:33.737Z,8.20
2019-02-05T16:51:33.466Z,8.00
2019-02-05T16:53:25.804Z,8.50
2019-02-05T16:54:25.840Z,7.70
2019-02-05T16:56:19.350Z,8.70
2019-02-05T16:57:18.912Z,8.60
2019-02-05T16:59:11.849Z,8.70
2019-02-05T17:00:11.286Z,9.50
2019-02-05T17:02:03.854Z,8.40
2019-02-05T17:03:03.809Z,8.40
2019-02-05T17:04:56.972Z,8.40
2019-02-05T17:05:57.193Z,8.50
2019-02-05T17:07:50.009Z,8.70
2019-02-05T17:08:49.777Z,8.80
2019-02-05T17:10:43.177Z,8.70
2019-02-05T17:11:43.159Z,8.10
2019-02-05T17:13:35.689Z,7.40
2019-02-05T17:14:35.687Z,7.70
2019-02-05T17:16:28.574Z,8.30
2019-02-05T17:17:28.624Z,8.10
2019-02-05T17:19:21.903Z,8.60
2019-02-05T17:20:21.930Z,8.60
2019-02-05T17:22:14.022Z,8.30
2019-02-05T17:23:14.012Z,8.20
2019-02-05T17:25:07.823Z,8.10
2019-02-05T17:26:07.618Z,8.50
2019-02-05T17:27:59.733Z,8.80
2019-02-05T17:28:59.718Z,7.90
2019-02-05T17:30:52.212Z,8.50
2019-02-05T17:31:52.054Z,9.20
2019-02-05T17:33:44.370Z,9.10
2019-02-05T17:34:44.363Z,9.10
2019-02-05T17:36:38.203Z,8.50
2019-02-05T17:37:37.961Z,8.90
2019-02-05T17:39:30.316Z,8.70
2019-02-05T17:40:30.268Z,8.60
2019-02-05T17:42:22.547Z,7.80
2019-02-05T17:43:22.599Z,7.80
2019-02-05T17:45:14.939Z,9.30
2019-02-05T17:46:14.932Z,8.40
2019-02-05T17:48:07.537Z,7.20
2019-02-05T17:49:07.269Z,7.80
2019-02-05T17:51:00.204Z,8.60
2019-02-05T17:51:59.365Z,8.70
2019-02-05T17:53:52.192Z,8.10
2019-02-05T17:54:51.662Z,8.80
2019-02-05T17:56:44.040Z,7.30
2019-02-05T17:57:44.279Z,7.20
2019-02-05T17:59:37.639Z,8.70
2019-02-05T18:00:37.599Z,8.50
2019-02-05T18:02:29.919Z,9.30
2019-02-05T18:03:29.899Z,9.20
2019-02-05T18:05:22.617Z,8.50
2019-02-05T18:06:22.592Z,8.40
2019-02-05T18:08:14.943Z,7.40
2019-02-05T18:09:14.928Z,8.20
2019-02-05T18:11:07.529Z,9.10
2019-02-05T18:12:07.044Z,8.40
2019-02-05T18:13:59.368Z,8.70
2019-02-05T18:14:59.585Z,8.50
2019-02-05T18:16:52.176Z,9.60
2019-02-05T18:17:51.713Z,9.40
2019-02-05T18:19:44.329Z,9.60
2019-02-05T18:20:44.020Z,9.00
2019-02-05T18:22:36.975Z,9.70
2019-02-05T18:23:36.516Z,9.20
2019-02-05T18:25:29.104Z,9.40
2019-02-05T18:26:29.088Z,9.00
2019-02-05T18:28:21.637Z,9.90
2019-02-05T18:29:21.433Z,9.70
2019-02-05T18:31:13.542Z,10.60
2019-02-05T18:32:13.780Z,9.30
2019-02-05T18:34:07.131Z,8.90
2019-02-05T18:35:06.908Z,9.30
2019-02-05T18:36:59.240Z,9.90
2019-02-05T18:37:59.217Z,9.30
2019-02-05T18:39:52.805Z,8.60
2019-02-05T18:40:52.579Z,9.40
2019-02-05T18:42:45.143Z,9.60
2019-02-05T18:43:44.896Z,9.40
2019-02-05T18:45:38.999Z,8.60
2019-02-05T18:46:38.898Z,9.20
2019-02-05T18:48:31.373Z,8.40
2019-02-05T18:49:31.117Z,8.20
2019-02-05T18:51:23.908Z,7.90
2019-02-05T18:52:23.675Z,9.70
2019-02-05T18:54:15.883Z,9.20
2019-02-05T18:55:16.014Z,9.00
2019-02-05T18:57:08.331Z,8.40